sensor_id;sensor_type;location;lat;lon;timestamp;P1;durP1;ratioP1;P2;durP2;ratioP2
30147;SDS011;16960;49.404;8.248;2022-11-15T00:00:45;4.20;;;3.80;;
30147;SDS011;16960;49.404;8.248;2022-11-15T00:03:13;4.20;;;3.90;;
30147;SDS011;16960;49.404;8.248;2022-11-15T00:05:40;4.97;;;4.47;;
30147;SDS011;16960;49.404;8.248;2022-11-15T00:08:08;4.27;;;3.87;;
30147;SDS011;16960;49.404;8.248;2022-11-15T00:10:35;3.53;;;3.23;;
30147;SDS011;16960;49.404;8.248;2022-11-15T00:13:04;4.20;;;3.80;;
30147;SDS011;16960;49.404;8.248;2022-11-15T00:15:35;3.90;;;3.60;;
30147;SDS011;16960;49.404;8.248;2022-11-15T00:18:02;4.17;;;3.77;;
30147;SDS011;16960;49.404;8.248;2022-11-15T00:20:29;5.83;;;4.50;;
30147;SDS011;16960;49.404;8.248;2022-11-15T00:22:56;4.23;;;3.43;;
30147;SDS011;16960;49.404;8.248;2022-11-15T00:25:23;4.67;;;4.27;;
30147;SDS011;16960;49.404;8.248;2022-11-15T00:27:51;4.43;;;3.90;;
30147;SDS011;16960;49.404;8.248;2022-11-15T00:30:21;4.83;;;3.40;;
30147;SDS011;16960;49.404;8.248;2022-11-15T00:32:49;3.90;;;3.60;;
30147;SDS011;16960;49.404;8.248;2022-11-15T00:35:17;4.33;;;3.93;;
30147;SDS011;16960;49.404;8.248;2022-11-15T00:37:44;4.30;;;4.00;;
30147;SDS011;16960;49.404;8.248;2022-11-15T00:40:12;4.60;;;4.20;;
30147;SDS011;16960;49.404;8.248;2022-11-15T00:42:39;4.40;;;3.90;;
30147;SDS011;16960;49.404;8.248;2022-11-15T00:45:06;4.10;;;3.70;;
30147;SDS011;16960;49.404;8.248;2022-11-15T00:47:34;3.90;;;3.60;;
30147;SDS011;16960;49.404;8.248;2022-11-15T00:50:03;4.00;;;3.53;;
30147;SDS011;16960;49.404;8.248;2022-11-15T00:52:30;4.10;;;3.70;;
30147;SDS011;16960;49.404;8.248;2022-11-15T00:54:57;4.00;;;3.60;;
30147;SDS011;16960;49.404;8.248;2022-11-15T00:57:24;3.30;;;3.00;;
30147;SDS011;16960;49.404;8.248;2022-11-15T00:59:51;3.60;;;3.30;;
30147;SDS011;16960;49.404;8.248;2022-11-15T01:02:18;3.80;;;3.50;;
30147;SDS011;16960;49.404;8.248;2022-11-15T01:04:45;3.87;;;3.57;;
30147;SDS011;16960;49.404;8.248;2022-11-15T01:07:13;4.10;;;3.70;;
30147;SDS011;16960;49.404;8.248;2022-11-15T01:09:40;3.47;;;3.20;;
30147;SDS011;16960;49.404;8.248;2022-11-15T01:12:07;4.07;;;3.67;;
30147;SDS011;16960;49.404;8.248;2022-11-15T01:14:34;3.87;;;3.57;;
30147;SDS011;16960;49.404;8.248;2022-11-15T01:17:01;4.00;;;3.30;;
30147;SDS011;16960;49.404;8.248;2022-11-15T01:19:28;3.80;;;3.50;;
30147;SDS011;16960;49.404;8.248;2022-11-15T01:21:54;4.07;;;3.67;;
30147;SDS011;16960;49.404;8.248;2022-11-15T01:24:23;3.87;;;3.57;;
30147;SDS011;16960;49.404;8.248;2022-11-15T01:26:50;4.20;;;3.80;;
30147;SDS011;16960;49.404;8.248;2022-11-15T01:29:16;3.77;;;3.47;;
30147;SDS011;16960;49.404;8.248;2022-11-15T01:31:43;3.60;;;3.30;;
30147;SDS011;16960;49.404;8.248;2022-11-15T01:34:10;3.97;;;3.57;;
30147;SDS011;16960;49.404;8.248;2022-11-15T01:36:37;4.67;;;3.50;;
30147;SDS011;16960;49.404;8.248;2022-11-15T01:39:04;4.30;;;3.80;;
30147;SDS011;16960;49.404;8.248;2022-11-15T01:41:33;3.80;;;3.50;;
30147;SDS011;16960;49.404;8.248;2022-11-15T01:47:00;3.33;;;3.03;;
30147;SDS011;16960;49.404;8.248;2022-11-15T01:49:31;3.80;;;3.50;;
30147;SDS011;16960;49.404;8.248;2022-11-15T01:52:02;3.43;;;3.13;;
30147;SDS011;16960;49.404;8.248;2022-11-15T01:54:33;4.23;;;3.83;;
30147;SDS011;16960;49.404;8.248;2022-11-15T01:57:02;4.30;;;3.67;;
30147;SDS011;16960;49.404;8.248;2022-11-15T01:59:32;3.90;;;3.40;;
30147;SDS011;16960;49.404;8.248;2022-11-15T02:02:00;4.60;;;3.70;;
30147;SDS011;16960;49.404;8.248;2022-11-15T02:04:27;4.40;;;4.00;;
30147;SDS011;16960;49.404;8.248;2022-11-15T02:06:56;4.00;;;3.60;;
30147;SDS011;16960;49.404;8.248;2022-11-15T02:09:23;6.27;;;3.80;;
30147;SDS011;16960;49.404;8.248;2022-11-15T02:11:50;3.40;;;3.10;;
30147;SDS011;16960;49.404;8.248;2022-11-15T02:14:21;3.73;;;3.43;;
30147;SDS011;16960;49.404;8.248;2022-11-15T02:16:51;4.17;;;3.20;;
30147;SDS011;16960;49.404;8.248;2022-11-15T02:19:28;3.17;;;2.90;;
30147;SDS011;16960;49.404;8.248;2022-11-15T02:22:10;3.90;;;3.30;;
30147;SDS011;16960;49.404;8.248;2022-11-15T02:24:50;2.80;;;2.60;;
30147;SDS011;16960;49.404;8.248;2022-11-15T02:27:35;3.80;;;3.50;;
30147;SDS011;16960;49.404;8.248;2022-11-15T02:30:21;3.33;;;3.03;;
30147;SDS011;16960;49.404;8.248;2022-11-15T02:32:50;4.20;;;3.80;;
30147;SDS011;16960;49.404;8.248;2022-11-15T02:35:23;3.33;;;3.03;;
30147;SDS011;16960;49.404;8.248;2022-11-15T02:37:57;3.50;;;3.20;;
30147;SDS011;16960;49.404;8.248;2022-11-15T02:40:33;4.47;;;4.07;;
30147;SDS011;16960;49.404;8.248;2022-11-15T02:43:07;4.83;;;4.33;;
30147;SDS011;16960;49.404;8.248;2022-11-15T02:45:56;3.73;;;3.43;;
30147;SDS011;16960;49.404;8.248;2022-11-15T02:48:28;4.67;;;4.20;;
30147;SDS011;16960;49.404;8.248;2022-11-15T02:50:56;3.67;;;3.37;;
30147;SDS011;16960;49.404;8.248;2022-11-15T02:53:24;3.93;;;3.63;;
30147;SDS011;16960;49.404;8.248;2022-11-15T02:55:52;3.80;;;3.50;;
30147;SDS011;16960;49.404;8.248;2022-11-15T02:58:36;3.60;;;3.20;;
30147;SDS011;16960;49.404;8.248;2022-11-15T03:01:28;4.00;;;3.63;;
30147;SDS011;16960;49.404;8.248;2022-11-15T03:04:08;3.50;;;3.20;;
30147;SDS011;16960;49.404;8.248;2022-11-15T03:06:49;3.20;;;2.93;;
30147;SDS011;16960;49.404;8.248;2022-11-15T03:09:25;3.70;;;3.40;;
30147;SDS011;16960;49.404;8.248;2022-11-15T03:12:00;3.80;;;3.50;;
30147;SDS011;16960;49.404;8.248;2022-11-15T03:14:30;3.70;;;3.40;;
30147;SDS011;16960;49.404;8.248;2022-11-15T03:17:03;3.50;;;3.20;;
30147;SDS011;16960;49.404;8.248;2022-11-15T03:19:40;3.60;;;3.07;;
30147;SDS011;16960;49.404;8.248;2022-11-15T03:22:12;4.37;;;3.20;;
30147;SDS011;16960;49.404;8.248;2022-11-15T03:24:42;3.40;;;3.10;;
30147;SDS011;16960;49.404;8.248;2022-11-15T03:27:12;3.57;;;3.27;;
30147;SDS011;16960;49.404;8.248;2022-11-15T03:29:41;3.77;;;3.47;;
30147;SDS011;16960;49.404;8.248;2022-11-15T03:32:15;3.50;;;3.17;;
30147;SDS011;16960;49.404;8.248;2022-11-15T03:34:44;3.23;;;2.97;;
30147;SDS011;16960;49.404;8.248;2022-11-15T03:37:16;2.80;;;2.50;;
30147;SDS011;16960;49.404;8.248;2022-11-15T03:39:47;3.90;;;3.60;;
30147;SDS011;16960;49.404;8.248;2022-11-15T03:42:16;3.47;;;3.17;;
30147;SDS011;16960;49.404;8.248;2022-11-15T03:44:49;3.30;;;3.10;;
30147;SDS011;16960;49.404;8.248;2022-11-15T03:47:23;3.50;;;3.20;;
30147;SDS011;16960;49.404;8.248;2022-11-15T03:49:55;3.77;;;3.47;;
30147;SDS011;16960;49.404;8.248;2022-11-15T03:52:26;3.73;;;3.43;;
30147;SDS011;16960;49.404;8.248;2022-11-15T03:54:57;3.40;;;3.20;;
30147;SDS011;16960;49.404;8.248;2022-11-15T03:57:26;4.37;;;3.70;;
30147;SDS011;16960;49.404;8.248;2022-11-15T03:59:53;3.40;;;3.10;;
30147;SDS011;16960;49.404;8.248;2022-11-15T04:02:20;3.50;;;2.90;;
30147;SDS011;16960;49.404;8.248;2022-11-15T04:04:49;3.60;;;3.30;;
30147;SDS011;16960;49.404;8.248;2022-11-15T04:07:15;3.70;;;3.40;;
30147;SDS011;16960;49.404;8.248;2022-11-15T04:09:42;3.40;;;3.10;;
30147;SDS011;16960;49.404;8.248;2022-11-15T04:12:26;4.00;;;3.70;;
30147;SDS011;16960;49.404;8.248;2022-11-15T04:14:57;3.73;;;3.30;;
30147;SDS011;16960;49.404;8.248;2022-11-15T04:17:36;3.70;;;3.40;;
30147;SDS011;16960;49.404;8.248;2022-11-15T04:20:05;3.17;;;2.87;;
30147;SDS011;16960;49.404;8.248;2022-11-15T04:22:52;3.90;;;3.60;;
30147;SDS011;16960;49.404;8.248;2022-11-15T04:25:37;3.57;;;3.20;;
30147;SDS011;16960;49.404;8.248;2022-11-15T04:28:04;4.23;;;3.93;;
30147;SDS011;16960;49.404;8.248;2022-11-15T04:30:31;3.40;;;3.10;;
30147;SDS011;16960;49.404;8.248;2022-11-15T04:32:59;4.27;;;3.97;;
30147;SDS011;16960;49.404;8.248;2022-11-15T04:35:26;3.93;;;3.63;;
30147;SDS011;16960;49.404;8.248;2022-11-15T04:37:53;3.70;;;3.40;;
30147;SDS011;16960;49.404;8.248;2022-11-15T04:40:23;3.80;;;3.50;;
30147;SDS011;16960;49.404;8.248;2022-11-15T04:42:49;4.20;;;3.13;;
30147;SDS011;16960;49.404;8.248;2022-11-15T04:45:16;3.97;;;3.53;;
30147;SDS011;16960;49.404;8.248;2022-11-15T04:47:43;3.27;;;2.97;;
30147;SDS011;16960;49.404;8.248;2022-11-15T04:50:12;3.00;;;2.80;;
30147;SDS011;16960;49.404;8.248;2022-11-15T04:52:40;4.20;;;3.80;;
30147;SDS011;16960;49.404;8.248;2022-11-15T04:55:08;3.73;;;3.43;;
30147;SDS011;16960;49.404;8.248;2022-11-15T04:57:35;3.60;;;3.30;;
30147;SDS011;16960;49.404;8.248;2022-11-15T05:00:03;3.13;;;2.70;;
30147;SDS011;16960;49.404;8.248;2022-11-15T05:02:31;4.43;;;3.67;;
30147;SDS011;16960;49.404;8.248;2022-11-15T05:05:13;6.03;;;3.87;;
30147;SDS011;16960;49.404;8.248;2022-11-15T05:07:40;3.60;;;3.30;;
30147;SDS011;16960;49.404;8.248;2022-11-15T05:10:08;4.03;;;3.63;;
30147;SDS011;16960;49.404;8.248;2022-11-15T05:12:35;3.23;;;2.93;;
30147;SDS011;16960;49.404;8.248;2022-11-15T05:15:02;3.70;;;3.40;;
30147;SDS011;16960;49.404;8.248;2022-11-15T05:17:30;3.47;;;3.27;;
30147;SDS011;16960;49.404;8.248;2022-11-15T05:19:56;3.80;;;3.50;;
30147;SDS011;16960;49.404;8.248;2022-11-15T05:22:25;3.53;;;3.23;;
30147;SDS011;16960;49.404;8.248;2022-11-15T05:24:52;4.20;;;3.10;;
30147;SDS011;16960;49.404;8.248;2022-11-15T05:27:19;3.73;;;3.20;;
30147;SDS011;16960;49.404;8.248;2022-11-15T05:29:45;3.00;;;2.80;;
30147;SDS011;16960;49.404;8.248;2022-11-15T05:32:12;3.60;;;3.30;;
30147;SDS011;16960;49.404;8.248;2022-11-15T05:34:39;3.43;;;3.13;;
30147;SDS011;16960;49.404;8.248;2022-11-15T05:37:06;3.20;;;2.93;;
30147;SDS011;16960;49.404;8.248;2022-11-15T05:39:35;4.17;;;3.77;;
30147;SDS011;16960;49.404;8.248;2022-11-15T05:42:04;3.30;;;3.00;;
30147;SDS011;16960;49.404;8.248;2022-11-15T05:44:35;3.80;;;3.50;;
30147;SDS011;16960;49.404;8.248;2022-11-15T05:47:03;3.57;;;3.27;;
30147;SDS011;16960;49.404;8.248;2022-11-15T05:49:34;3.00;;;2.80;;
30147;SDS011;16960;49.404;8.248;2022-11-15T05:52:03;7.93;;;3.50;;
30147;SDS011;16960;49.404;8.248;2022-11-15T05:54:33;3.40;;;3.10;;
30147;SDS011;16960;49.404;8.248;2022-11-15T05:57:03;2.70;;;2.50;;
30147;SDS011;16960;49.404;8.248;2022-11-15T05:59:30;2.87;;;2.67;;
30147;SDS011;16960;49.404;8.248;2022-11-15T06:01:58;3.40;;;2.73;;
30147;SDS011;16960;49.404;8.248;2022-11-15T06:04:25;4.13;;;3.83;;
30147;SDS011;16960;49.404;8.248;2022-11-15T06:06:52;3.50;;;3.20;;
30147;SDS011;16960;49.404;8.248;2022-11-15T06:09:19;3.03;;;2.80;;
30147;SDS011;16960;49.404;8.248;2022-11-15T06:11:47;3.10;;;2.83;;
30147;SDS011;16960;49.404;8.248;2022-11-15T06:14:14;3.57;;;3.17;;
30147;SDS011;16960;49.404;8.248;2022-11-15T06:16:41;3.50;;;3.20;;
30147;SDS011;16960;49.404;8.248;2022-11-15T06:19:08;3.50;;;3.30;;
30147;SDS011;16960;49.404;8.248;2022-11-15T06:21:35;3.97;;;3.20;;
30147;SDS011;16960;49.404;8.248;2022-11-15T06:24:02;2.60;;;2.40;;
30147;SDS011;16960;49.404;8.248;2022-11-15T06:26:29;2.87;;;2.60;;
30147;SDS011;16960;49.404;8.248;2022-11-15T06:28:58;3.13;;;2.90;;
30147;SDS011;16960;49.404;8.248;2022-11-15T06:31:24;2.87;;;2.60;;
30147;SDS011;16960;49.404;8.248;2022-11-15T06:33:51;3.13;;;2.93;;
30147;SDS011;16960;49.404;8.248;2022-11-15T06:36:18;2.70;;;2.50;;
30147;SDS011;16960;49.404;8.248;2022-11-15T06:38:45;3.67;;;3.37;;
30147;SDS011;16960;49.404;8.248;2022-11-15T06:41:13;3.23;;;2.93;;
30147;SDS011;16960;49.404;8.248;2022-11-15T06:43:41;4.40;;;3.47;;
30147;SDS011;16960;49.404;8.248;2022-11-15T06:46:10;3.40;;;3.10;;
30147;SDS011;16960;49.404;8.248;2022-11-15T06:48:37;3.20;;;2.90;;
30147;SDS011;16960;49.404;8.248;2022-11-15T06:51:04;4.37;;;4.00;;
30147;SDS011;16960;49.404;8.248;2022-11-15T06:53:32;3.57;;;3.27;;
30147;SDS011;16960;49.404;8.248;2022-11-15T06:55:59;3.13;;;2.83;;
30147;SDS011;16960;49.404;8.248;2022-11-15T06:58:27;4.40;;;3.80;;
30147;SDS011;16960;49.404;8.248;2022-11-15T07:00:57;3.30;;;3.00;;
30147;SDS011;16960;49.404;8.248;2022-11-15T07:03:26;4.47;;;3.53;;
30147;SDS011;16960;49.404;8.248;2022-11-15T07:05:54;6.00;;;2.93;;
30147;SDS011;16960;49.404;8.248;2022-11-15T07:08:22;3.80;;;3.50;;
30147;SDS011;16960;49.404;8.248;2022-11-15T07:10:49;4.00;;;3.70;;
30147;SDS011;16960;49.404;8.248;2022-11-15T07:13:16;3.90;;;3.50;;
30147;SDS011;16960;49.404;8.248;2022-11-15T07:15:43;4.07;;;3.70;;
30147;SDS011;16960;49.404;8.248;2022-11-15T07:18:10;3.83;;;3.43;;
30147;SDS011;16960;49.404;8.248;2022-11-15T07:20:38;4.30;;;3.90;;
30147;SDS011;16960;49.404;8.248;2022-11-15T07:23:05;3.97;;;3.60;;
30147;SDS011;16960;49.404;8.248;2022-11-15T07:25:32;4.77;;;4.27;;
30147;SDS011;16960;49.404;8.248;2022-11-15T07:27:59;4.20;;;3.50;;
30147;SDS011;16960;49.404;8.248;2022-11-15T07:30:27;7.17;;;4.70;;
30147;SDS011;16960;49.404;8.248;2022-11-15T07:32:54;6.10;;;4.20;;
30147;SDS011;16960;49.404;8.248;2022-11-15T07:35:21;5.67;;;4.47;;
30147;SDS011;16960;49.404;8.248;2022-11-15T07:37:56;5.10;;;4.60;;
30147;SDS011;16960;49.404;8.248;2022-11-15T07:40:24;6.03;;;5.43;;
30147;SDS011;16960;49.404;8.248;2022-11-15T07:42:52;5.40;;;4.90;;
30147;SDS011;16960;49.404;8.248;2022-11-15T07:45:25;7.50;;;5.50;;
30147;SDS011;16960;49.404;8.248;2022-11-15T07:47:52;8.83;;;6.03;;
30147;SDS011;16960;49.404;8.248;2022-11-15T07:50:21;5.37;;;4.83;;
30147;SDS011;16960;49.404;8.248;2022-11-15T07:52:50;5.40;;;4.90;;
30147;SDS011;16960;49.404;8.248;2022-11-15T07:55:21;7.27;;;5.23;;
30147;SDS011;16960;49.404;8.248;2022-11-15T07:57:48;5.30;;;4.80;;
30147;SDS011;16960;49.404;8.248;2022-11-15T08:00:16;5.40;;;4.90;;
30147;SDS011;16960;49.404;8.248;2022-11-15T08:02:44;7.97;;;5.40;;
30147;SDS011;16960;49.404;8.248;2022-11-15T08:05:11;6.10;;;5.00;;
30147;SDS011;16960;49.404;8.248;2022-11-15T08:07:39;6.27;;;4.97;;
30147;SDS011;16960;49.404;8.248;2022-11-15T08:10:06;6.90;;;4.90;;
30147;SDS011;16960;49.404;8.248;2022-11-15T08:12:35;5.20;;;4.80;;
30147;SDS011;16960;49.404;8.248;2022-11-15T08:15:02;6.10;;;5.60;;
30147;SDS011;16960;49.404;8.248;2022-11-15T08:17:30;5.23;;;4.70;;
30147;SDS011;16960;49.404;8.248;2022-11-15T08:19:58;6.90;;;5.53;;
30147;SDS011;16960;49.404;8.248;2022-11-15T08:22:25;7.30;;;5.77;;
30147;SDS011;16960;49.404;8.248;2022-11-15T08:24:52;5.30;;;4.70;;
30147;SDS011;16960;49.404;8.248;2022-11-15T08:27:19;5.63;;;5.10;;
30147;SDS011;16960;49.404;8.248;2022-11-15T08:29:48;5.53;;;5.03;;
30147;SDS011;16960;49.404;8.248;2022-11-15T08:32:15;6.47;;;5.77;;
30147;SDS011;16960;49.404;8.248;2022-11-15T08:34:42;5.60;;;4.97;;
30147;SDS011;16960;49.404;8.248;2022-11-15T08:37:09;6.30;;;5.80;;
30147;SDS011;16960;49.404;8.248;2022-11-15T08:39:36;5.90;;;5.30;;
30147;SDS011;16960;49.404;8.248;2022-11-15T08:42:04;5.57;;;4.97;;
30147;SDS011;16960;49.404;8.248;2022-11-15T08:44:30;4.90;;;4.50;;
30147;SDS011;16960;49.404;8.248;2022-11-15T08:46:59;5.00;;;4.60;;
30147;SDS011;16960;49.404;8.248;2022-11-15T08:49:26;6.30;;;3.97;;
30147;SDS011;16960;49.404;8.248;2022-11-15T08:51:52;7.40;;;5.20;;
30147;SDS011;16960;49.404;8.248;2022-11-15T08:54:19;5.63;;;5.03;;
30147;SDS011;16960;49.404;8.248;2022-11-15T08:56:46;6.00;;;5.40;;
30147;SDS011;16960;49.404;8.248;2022-11-15T08:59:13;4.90;;;4.40;;
30147;SDS011;16960;49.404;8.248;2022-11-15T09:01:40;6.90;;;5.17;;
30147;SDS011;16960;49.404;8.248;2022-11-15T09:04:09;5.70;;;4.57;;
30147;SDS011;16960;49.404;8.248;2022-11-15T09:06:36;4.57;;;4.10;;
30147;SDS011;16960;49.404;8.248;2022-11-15T09:09:03;5.17;;;4.67;;
30147;SDS011;16960;49.404;8.248;2022-11-15T09:11:30;4.83;;;4.40;;
30147;SDS011;16960;49.404;8.248;2022-11-15T09:13:57;4.70;;;4.30;;
30147;SDS011;16960;49.404;8.248;2022-11-15T09:16:24;4.67;;;3.97;;
30147;SDS011;16960;49.404;8.248;2022-11-15T09:18:52;5.00;;;4.33;;
30147;SDS011;16960;49.404;8.248;2022-11-15T09:21:21;4.43;;;4.03;;
30147;SDS011;16960;49.404;8.248;2022-11-15T09:23:49;4.90;;;4.40;;
30147;SDS011;16960;49.404;8.248;2022-11-15T09:26:17;5.37;;;4.87;;
30147;SDS011;16960;49.404;8.248;2022-11-15T09:28:44;4.33;;;3.97;;
30147;SDS011;16960;49.404;8.248;2022-11-15T09:31:11;4.13;;;3.73;;
30147;SDS011;16960;49.404;8.248;2022-11-15T09:33:38;4.70;;;4.30;;
30147;SDS011;16960;49.404;8.248;2022-11-15T09:36:07;4.60;;;4.10;;
30147;SDS011;16960;49.404;8.248;2022-11-15T09:38:36;4.53;;;4.17;;
30147;SDS011;16960;49.404;8.248;2022-11-15T09:41:24;4.30;;;3.90;;
30147;SDS011;16960;49.404;8.248;2022-11-15T09:44:05;3.83;;;3.47;;
30147;SDS011;16960;49.404;8.248;2022-11-15T09:46:44;4.13;;;3.73;;
30147;SDS011;16960;49.404;8.248;2022-11-15T09:49:18;4.03;;;3.73;;
30147;SDS011;16960;49.404;8.248;2022-11-15T09:51:47;4.13;;;3.73;;
30147;SDS011;16960;49.404;8.248;2022-11-15T09:54:20;4.87;;;4.40;;
30147;SDS011;16960;49.404;8.248;2022-11-15T09:56:52;4.57;;;4.17;;
30147;SDS011;16960;49.404;8.248;2022-11-15T09:59:33;4.23;;;3.83;;
30147;SDS011;16960;49.404;8.248;2022-11-15T10:02:12;5.87;;;3.97;;
30147;SDS011;16960;49.404;8.248;2022-11-15T10:04:49;4.40;;;4.00;;
30147;SDS011;16960;49.404;8.248;2022-11-15T10:07:19;4.43;;;3.97;;
30147;SDS011;16960;49.404;8.248;2022-11-15T10:09:53;4.10;;;3.80;;
30147;SDS011;16960;49.404;8.248;2022-11-15T10:12:22;4.30;;;3.60;;
30147;SDS011;16960;49.404;8.248;2022-11-15T10:14:53;5.90;;;3.90;;
30147;SDS011;16960;49.404;8.248;2022-11-15T10:17:33;4.20;;;3.80;;
30147;SDS011;16960;49.404;8.248;2022-11-15T10:20:17;6.33;;;3.93;;
30147;SDS011;16960;49.404;8.248;2022-11-15T10:22:48;4.07;;;3.77;;
30147;SDS011;16960;49.404;8.248;2022-11-15T10:25:22;4.40;;;4.00;;
30147;SDS011;16960;49.404;8.248;2022-11-15T10:27:53;5.87;;;4.27;;
30147;SDS011;16960;49.404;8.248;2022-11-15T10:30:22;4.57;;;4.13;;
30147;SDS011;16960;49.404;8.248;2022-11-15T10:32:54;3.63;;;3.20;;
30147;SDS011;16960;49.404;8.248;2022-11-15T10:35:23;5.73;;;4.43;;
30147;SDS011;16960;49.404;8.248;2022-11-15T10:37:51;4.30;;;3.90;;
30147;SDS011;16960;49.404;8.248;2022-11-15T10:40:31;3.60;;;3.30;;
30147;SDS011;16960;49.404;8.248;2022-11-15T10:43:04;3.53;;;3.23;;
30147;SDS011;16960;49.404;8.248;2022-11-15T10:45:33;3.03;;;2.83;;
30147;SDS011;16960;49.404;8.248;2022-11-15T10:48:18;4.53;;;3.00;;
30147;SDS011;16960;49.404;8.248;2022-11-15T10:50:48;3.63;;;3.33;;
30147;SDS011;16960;49.404;8.248;2022-11-15T10:53:19;3.60;;;3.30;;
30147;SDS011;16960;49.404;8.248;2022-11-15T10:55:57;3.53;;;3.33;;
30147;SDS011;16960;49.404;8.248;2022-11-15T10:58:31;3.70;;;3.40;;
30147;SDS011;16960;49.404;8.248;2022-11-15T11:01:11;4.50;;;3.30;;
30147;SDS011;16960;49.404;8.248;2022-11-15T11:03:41;4.87;;;4.20;;
30147;SDS011;16960;49.404;8.248;2022-11-15T11:06:10;4.60;;;3.67;;
30147;SDS011;16960;49.404;8.248;2022-11-15T11:08:39;3.83;;;3.47;;
30147;SDS011;16960;49.404;8.248;2022-11-15T11:11:07;4.17;;;3.87;;
30147;SDS011;16960;49.404;8.248;2022-11-15T11:13:35;4.67;;;4.27;;
30147;SDS011;16960;49.404;8.248;2022-11-15T11:16:17;3.73;;;3.03;;
30147;SDS011;16960;49.404;8.248;2022-11-15T11:19:02;3.20;;;3.00;;
30147;SDS011;16960;49.404;8.248;2022-11-15T11:21:39;4.03;;;3.67;;
30147;SDS011;16960;49.404;8.248;2022-11-15T11:24:14;4.13;;;3.73;;
30147;SDS011;16960;49.404;8.248;2022-11-15T11:26:55;4.10;;;3.70;;
30147;SDS011;16960;49.404;8.248;2022-11-15T11:29:38;3.30;;;3.00;;
30147;SDS011;16960;49.404;8.248;2022-11-15T11:32:23;4.17;;;3.10;;
30147;SDS011;16960;49.404;8.248;2022-11-15T11:35:03;3.90;;;3.60;;
30147;SDS011;16960;49.404;8.248;2022-11-15T11:37:39;5.37;;;4.17;;
30147;SDS011;16960;49.404;8.248;2022-11-15T11:40:14;3.90;;;3.60;;
30147;SDS011;16960;49.404;8.248;2022-11-15T11:42:52;3.50;;;3.20;;
30147;SDS011;16960;49.404;8.248;2022-11-15T11:45:40;3.03;;;2.80;;
30147;SDS011;16960;49.404;8.248;2022-11-15T11:48:21;3.80;;;3.40;;
30147;SDS011;16960;49.404;8.248;2022-11-15T11:50:57;4.87;;;3.87;;
30147;SDS011;16960;49.404;8.248;2022-11-15T11:53:31;4.20;;;3.17;;
30147;SDS011;16960;49.404;8.248;2022-11-15T11:56:04;3.03;;;2.77;;
30147;SDS011;16960;49.404;8.248;2022-11-15T11:58:42;3.30;;;3.00;;
30147;SDS011;16960;49.404;8.248;2022-11-15T12:01:12;3.67;;;3.37;;
30147;SDS011;16960;49.404;8.248;2022-11-15T12:03:45;3.50;;;3.27;;
30147;SDS011;16960;49.404;8.248;2022-11-15T12:06:19;3.30;;;3.00;;
30147;SDS011;16960;49.404;8.248;2022-11-15T12:08:52;3.07;;;2.87;;
30147;SDS011;16960;49.404;8.248;2022-11-15T12:11:26;3.50;;;2.87;;
30147;SDS011;16960;49.404;8.248;2022-11-15T12:13:58;2.80;;;2.50;;
30147;SDS011;16960;49.404;8.248;2022-11-15T12:16:28;3.80;;;2.60;;
30147;SDS011;16960;49.404;8.248;2022-11-15T12:18:58;3.83;;;3.20;;
30147;SDS011;16960;49.404;8.248;2022-11-15T12:21:30;3.00;;;2.80;;
30147;SDS011;16960;49.404;8.248;2022-11-15T12:24:04;3.10;;;2.70;;
30147;SDS011;16960;49.404;8.248;2022-11-15T12:26:35;4.23;;;3.60;;
30147;SDS011;16960;49.404;8.248;2022-11-15T12:29:09;3.53;;;3.17;;
30147;SDS011;16960;49.404;8.248;2022-11-15T12:31:41;3.00;;;2.80;;
30147;SDS011;16960;49.404;8.248;2022-11-15T12:34:15;3.30;;;3.00;;
30147;SDS011;16960;49.404;8.248;2022-11-15T12:37:01;3.43;;;3.23;;
30147;SDS011;16960;49.404;8.248;2022-11-15T12:42:56;3.43;;;3.17;;
30147;SDS011;16960;49.404;8.248;2022-11-15T12:45:30;2.87;;;2.60;;
30147;SDS011;16960;49.404;8.248;2022-11-15T12:51:01;3.03;;;2.83;;
30147;SDS011;16960;49.404;8.248;2022-11-15T12:53:29;3.97;;;3.10;;
30147;SDS011;16960;49.404;8.248;2022-11-15T12:56:17;3.20;;;2.90;;
30147;SDS011;16960;49.404;8.248;2022-11-15T12:58:47;4.37;;;3.10;;
30147;SDS011;16960;49.404;8.248;2022-11-15T13:04:25;2.80;;;2.57;;
30147;SDS011;16960;49.404;8.248;2022-11-15T13:06:54;3.10;;;2.83;;
30147;SDS011;16960;49.404;8.248;2022-11-15T13:15:37;3.37;;;3.07;;
30147;SDS011;16960;49.404;8.248;2022-11-15T13:18:27;2.90;;;2.47;;
30147;SDS011;16960;49.404;8.248;2022-11-15T13:20:58;3.27;;;2.67;;
30147;SDS011;16960;49.404;8.248;2022-11-15T13:23:26;2.90;;;2.70;;
30147;SDS011;16960;49.404;8.248;2022-11-15T13:26:01;2.87;;;2.67;;
30147;SDS011;16960;49.404;8.248;2022-11-15T13:28:41;3.60;;;2.80;;
30147;SDS011;16960;49.404;8.248;2022-11-15T13:31:22;6.37;;;3.43;;
30147;SDS011;16960;49.404;8.248;2022-11-15T13:34:03;2.90;;;2.70;;
30147;SDS011;16960;49.404;8.248;2022-11-15T13:36:44;2.87;;;2.67;;
30147;SDS011;16960;49.404;8.248;2022-11-15T13:39:12;2.70;;;2.37;;
30147;SDS011;16960;49.404;8.248;2022-11-15T13:41:52;3.17;;;2.87;;
30147;SDS011;16960;49.404;8.248;2022-11-15T13:44:20;3.03;;;2.83;;
30147;SDS011;16960;49.404;8.248;2022-11-15T13:46:48;2.53;;;2.30;;
30147;SDS011;16960;49.404;8.248;2022-11-15T13:49:28;3.50;;;2.50;;
30147;SDS011;16960;49.404;8.248;2022-11-15T13:51:57;2.80;;;2.53;;
30147;SDS011;16960;49.404;8.248;2022-11-15T13:54:27;2.40;;;2.20;;
30147;SDS011;16960;49.404;8.248;2022-11-15T13:56:57;4.33;;;2.50;;
30147;SDS011;16960;49.404;8.248;2022-11-15T13:59:28;3.13;;;2.53;;
30147;SDS011;16960;49.404;8.248;2022-11-15T14:01:57;3.47;;;3.17;;
30147;SDS011;16960;49.404;8.248;2022-11-15T14:04:27;3.10;;;2.57;;
30147;SDS011;16960;49.404;8.248;2022-11-15T14:07:00;2.63;;;2.43;;
30147;SDS011;16960;49.404;8.248;2022-11-15T14:09:33;2.40;;;2.20;;
30147;SDS011;16960;49.404;8.248;2022-11-15T14:12:19;2.73;;;2.50;;
30147;SDS011;16960;49.404;8.248;2022-11-15T14:14:57;3.80;;;2.97;;
30147;SDS011;16960;49.404;8.248;2022-11-15T14:17:35;2.37;;;2.17;;
30147;SDS011;16960;49.404;8.248;2022-11-15T14:22:54;2.60;;;2.40;;
30147;SDS011;16960;49.404;8.248;2022-11-15T14:25:23;2.30;;;2.10;;
30147;SDS011;16960;49.404;8.248;2022-11-15T14:28:10;2.70;;;2.50;;
30147;SDS011;16960;49.404;8.248;2022-11-15T14:30:39;3.00;;;2.70;;
30147;SDS011;16960;49.404;8.248;2022-11-15T14:33:17;2.40;;;2.20;;
30147;SDS011;16960;49.404;8.248;2022-11-15T14:35:49;2.53;;;2.33;;
30147;SDS011;16960;49.404;8.248;2022-11-15T14:38:17;4.57;;;2.40;;
30147;SDS011;16960;49.404;8.248;2022-11-15T14:40:44;2.47;;;2.27;;
30147;SDS011;16960;49.404;8.248;2022-11-15T14:43:12;2.57;;;2.37;;
30147;SDS011;16960;49.404;8.248;2022-11-15T14:45:39;3.20;;;2.90;;
30147;SDS011;16960;49.404;8.248;2022-11-15T14:48:06;3.30;;;2.47;;
30147;SDS011;16960;49.404;8.248;2022-11-15T14:50:34;3.00;;;2.43;;
30147;SDS011;16960;49.404;8.248;2022-11-15T14:53:01;3.37;;;2.70;;
30147;SDS011;16960;49.404;8.248;2022-11-15T14:55:31;2.30;;;2.10;;
30147;SDS011;16960;49.404;8.248;2022-11-15T14:58:01;2.47;;;2.20;;
30147;SDS011;16960;49.404;8.248;2022-11-15T15:00:29;2.37;;;2.17;;
30147;SDS011;16960;49.404;8.248;2022-11-15T15:02:56;4.50;;;2.47;;
30147;SDS011;16960;49.404;8.248;2022-11-15T15:05:24;2.37;;;2.17;;
30147;SDS011;16960;49.404;8.248;2022-11-15T15:07:52;2.57;;;2.10;;
30147;SDS011;16960;49.404;8.248;2022-11-15T15:10:19;2.73;;;2.30;;
30147;SDS011;16960;49.404;8.248;2022-11-15T15:12:47;3.20;;;2.30;;
30147;SDS011;16960;49.404;8.248;2022-11-15T15:15:16;2.30;;;2.10;;
30147;SDS011;16960;49.404;8.248;2022-11-15T15:17:45;2.50;;;2.20;;
30147;SDS011;16960;49.404;8.248;2022-11-15T15:20:12;1.90;;;1.80;;
30147;SDS011;16960;49.404;8.248;2022-11-15T15:22:39;2.43;;;2.20;;
30147;SDS011;16960;49.404;8.248;2022-11-15T15:25:19;2.33;;;2.13;;
30147;SDS011;16960;49.404;8.248;2022-11-15T15:27:54;5.10;;;2.47;;
30147;SDS011;16960;49.404;8.248;2022-11-15T15:30:21;3.63;;;2.50;;